Esbon, Kansas
Current Conditions -  °F | °C
As of 4:55 PM on Thursday 20 Nov 2014 (Local Time) from KCNK Reporting Station
Clear Clear  
Wind Chill: 32°   Ceiling: Unl
Heat Index: 37°   Visibility: 10mi
Dew Point: 20°   Wind: 7mph
Humidity: 50%   Direction: 90°E
Pressure: 30.13"   Gusts: NA
Location:  39.82°N, 98.44°W
Report Text: KCNK 202255Z AUTO 09006KT 10SM CLR 03/M07 A3013 RMK AO2 SLP219 T00281067
Loading
Personal Weather Stations






























Interactive Weather Map New forecast layout! Learn more

10-Day Weather Forecast

Advertisements
Track Severe Weather on mobile